Bookmark and Share
Track history (hours):
 

Chantaco

Last reported at 2014-Apr-24 05:33 UTC. Time now 2014-Apr-25 05:47 UTC.
Position N 58°38' E 017°09'.

Length 143 m; draft 9.1 m.

Type: Tanker. MMSI: 228330700.

NotesDate/timePositionNaut miles runAvg speedWind from/ knotsBaromVisibWave heightAir tempDewpointWater temp
2014-Apr-24 05:33N 58°38' E 017°09'154 6.4
2014-Apr-23 05:28N 56°05' E 016°47'1112.2
2014-Apr-23 04:33N 55°59' E 016°30'2712.2
2014-Apr-23 02:22N 55°46' E 015°49'2212.3
2014-Apr-23 00:33N 55°35' E 015°14'1312.3
2014-Apr-22 23:30N 55°29' E 014°54'1212.2
2014-Apr-22 22:33N 55°22' E 014°37'1312.7
2014-Apr-22 21:33N 55°13' E 014°23'1313.2
2014-Apr-22 20:33N 55°02' E 014°09'1313.3
2014-Apr-22 19:33N 54°57' E 013°47'1312.9
2014-Apr-22 18:33N 54°53' E 013°26'1212.4
2014-Apr-22 17:33N 54°49' E 013°06'1212.2
2014-Apr-22 16:33N 54°45' E 012°45'1212.1
2014-Apr-22 15:33N 54°39' E 012°28'1311.5
2014-Apr-22 14:23N 54°28' E 012°14'910.6
2014-Apr-22 13:33N 54°25' E 012°00'1212.0
2014-Apr-22 12:33N 54°27' E 011°40'1212.3
2014-Apr-22 11:33N 54°32' E 011°21'12710.6
2014-Apr-21 23:31N 56°39' E 011°45'1212.1
2014-Apr-21 22:30N 56°51' E 011°49'1313.8
2014-Apr-21 21:33N 57°03' E 011°40'1313.1
2014-Apr-21 20:33N 57°16' E 011°33'1313.2
2014-Apr-21 19:33N 57°29' E 011°37'1111.3
2014-Apr-21 18:33N 57°39' E 011°44'5 4.9
2014-Apr-21 17:33N 57°41' E 011°52'0 0.0
2014-Apr-21 16:33N 57°41' E 011°52'0 0.0
2014-Apr-21 15:33N 57°41' E 011°52'0 0.0
2014-Apr-21 14:33N 57°41' E 011°52'0 0.0
2014-Apr-21 13:33N 57°41' E 011°52'0 0.0
2014-Apr-21 12:33N 57°41' E 011°52'0 0.0
2014-Apr-21 11:33N 57°41' E 011°52'0 0.0
2014-Apr-21 10:33N 57°41' E 011°52'0 0.0
2014-Apr-21 09:33N 57°41' E 011°52'0 0.0
2014-Apr-21 08:33N 57°41' E 011°52'0 0.0
2014-Apr-21 07:33N 57°41' E 011°52'0 0.0
2014-Apr-21 06:32N 57°41' E 011°52'0 0.0
2014-Apr-21 05:32N 57°41' E 011°52'0 0.0
2014-Apr-21 04:32N 57°41' E 011°52'0 0.0
2014-Apr-21 03:32N 57°41' E 011°52'0 0.0
2014-Apr-21 02:32N 57°41' E 011°52'0 0.0
2014-Apr-21 01:32N 57°41' E 011°52'0 0.0
2014-Apr-21 00:32N 57°41' E 011°52'0 0.0
2014-Apr-20 23:32N 57°41' E 011°52'0 0.0
2014-Apr-20 22:32N 57°41' E 011°52'0 0.0
2014-Apr-20 21:32N 57°41' E 011°52'0 0.0
2014-Apr-20 20:32N 57°41' E 011°52'0 0.0
2014-Apr-20 19:32N 57°41' E 011°52'0 0.0
2014-Apr-20 18:32N 57°41' E 011°52'0 0.0
2014-Apr-20 17:32N 57°41' E 011°52'0 0.0
2014-Apr-20 16:32N 57°41' E 011°52'0 0.0
2014-Apr-20 15:32N 57°41' E 011°52'0 0.0
2014-Apr-20 14:32N 57°41' E 011°52'0 0.0
2014-Apr-20 13:32N 57°41' E 011°52'6 5.7
2014-Apr-20 12:33N 57°39' E 011°43'1212.2
2014-Apr-20 11:34N 57°43' E 011°22'1414.3
2014-Apr-20 10:33N 57°57' E 011°13'1413.9
2014-Apr-20 09:32N 58°11' E 011°13'1 0.0
2014-Apr-18 15:33N 58°11' E 011°11'0 0.1
2014-Apr-18 14:31N 58°11' E 011°10'0 0.0
2014-Apr-18 13:22N 58°11' E 011°10'0 0.1
2014-Apr-18 12:31N 58°11' E 011°10'0 0.0
2014-Apr-18 06:25N 58°11' E 011°11'0 0.0
2014-Apr-18 05:16N 58°11' E 011°11'0 0.0
2014-Apr-18 04:31N 58°11' E 011°11'0 0.1
2014-Apr-18 03:28N 58°11' E 011°11'0 0.0
2014-Apr-18 02:19N 58°11' E 011°11'0 0.2
2014-Apr-18 01:31N 58°12' E 011°11'0 0.2
2014-Apr-18 00:31N 58°11' E 011°11'5 5.6
2014-Apr-17 23:33N 58°11' E 011°01'2613.2
2014-Apr-17 21:33N 57°57' E 010°18'5913.7
2014-Apr-17 17:13N 57°25' E 008°45'24113.3
2014-Apr-16 23:04N 54°04' E 004°48'17313.5
2014-Apr-16 10:11N 51°35' E 002°22'811.3
2014-Apr-16 09:28N 51°28' E 002°14'1311.2
2014-Apr-16 08:20N 51°16' E 002°07'810.5
2014-Apr-16 07:34N 51°11' E 001°57'1110.4
2014-Apr-16 06:30N 51°04' E 001°44'1010.9
2014-Apr-16 05:33N 50°56' E 001°33'3612.0
2014-Apr-16 02:33N 50°28' E 000°58'1412.3
2014-Apr-16 01:27N 50°18' E 000°43'5113.0
2014-Apr-15 21:32N 49°38' W 000°05'1110.9
2014-Apr-15 20:33N 49°29' E 000°05'3 3.4
2014-Apr-15 19:33N 49°29' E 000°10'1 0.5
2014-Apr-15 18:21N 49°29' E 000°11'0 0.0
2014-Apr-15 17:27N 49°29' E 000°11'0 0.0
2014-Apr-15 16:30N 49°29' E 000°11'0 0.0
2014-Apr-15 15:30N 49°29' E 000°11'0 0.0
2014-Apr-15 14:33N 49°29' E 000°11'0 0.0
2014-Apr-15 12:33N 49°29' E 000°11'0 0.0
2014-Apr-15 11:30N 49°29' E 000°11'0 0.0
2014-Apr-15 10:30N 49°29' E 000°11'0 0.0
2014-Apr-15 09:33N 49°29' E 000°11'0 0.0
2014-Apr-15 08:30N 49°29' E 000°11'0 0.0
2014-Apr-15 07:33N 49°29' E 000°11'0 0.0
2014-Apr-15 06:30N 49°29' E 000°11'0 0.0
2014-Apr-15 05:33N 49°29' E 000°11'0 0.0
2014-Apr-15 03:33N 49°29' E 000°11'0 0.0
2014-Apr-15 02:33N 49°29' E 000°11'0 0.0
2014-Apr-15 01:33N 49°29' E 000°11'0 0.0
2014-Apr-15 00:33N 49°29' E 000°11'0 0.0
2014-Apr-14 23:33N 49°29' E 000°11'0 0.0
2014-Apr-14 22:33N 49°29' E 000°11'0 0.0
2014-Apr-14 21:33N 49°29' E 000°11'0 0.0
2014-Apr-14 20:33N 49°29' E 000°11'0 0.0
2014-Apr-14 19:33N 49°29' E 000°11'0 0.0
2014-Apr-14 18:32N 49°29' E 000°11'0 0.0
2014-Apr-14 17:32N 49°29' E 000°11'0 0.0
2014-Apr-14 16:32N 49°29' E 000°11'0 0.0
2014-Apr-14 15:32N 49°29' E 000°11'0 0.0
2014-Apr-14 14:32N 49°29' E 000°11'0 0.0
2014-Apr-14 13:32N 49°29' E 000°11'0 0.0
2014-Apr-14 11:32N 49°29' E 000°11'0 0.0
2014-Apr-14 10:32N 49°29' E 000°11'0 0.4
2014-Apr-14 09:34N 49°29' E 000°11'2 1.9
2014-Apr-14 08:33N 49°28' E 000°08'6 3.0
2014-Apr-14 06:31N 49°29' W 000°02'  

Dump ship's entire track history

sailing weather and tide predictions

Chantaco — FMLM — position and weather